To NAV CANADA Home Page Login to a new session Search on AWWS site Disclaimer Vers la page française équivalente Tips FAQ What's new on the site To the Forecasts and Observations / NOTAM section To "File a Flight Plan" website Publications and other links Update of the User's profile FIC Telephone Numbers My Weather Data Folder Route Weather Data Regional Weather Data Local Weather Data To the Forecasts and Observations / NOTAM section
Request Generated 08/19/2022 at 01:34:06 UTC . Weather information available at that time is displayed.

METAR/TAF

PETERBOROUGH/ON    (show WxCam)

METAR CYPQ 190100Z AUTO 00000KT 9SM CLR 17/17 A2993 RMK SLP138 DENSITY ALT 1000FT=
SPECI CYPQ 190045Z AUTO 00000KT 9SM CLR 18/17 A2993 RMK SLP138 DENSITY ALT 1100FT=
SPECI CYPQ 190044Z AUTO 00000KT 4SM BR CLR 17/17 A2993 RMK SLP137 DENSITY ALT 1100FT=
SPECI CYPQ 190043Z AUTO 00000KT 2 1/2SM BR CLR 17/17 A2993 RMK SLP137 DENSITY ALT 1100FT=
SPECI CYPQ 190035Z AUTO 00000KT 2 1/4SM BR CLR 17/17 A2993 RMK SLP137 DENSITY ALT 1100FT=
SPECI CYPQ 190034Z AUTO 00000KT 3SM BR CLR 17/17 A2993 RMK SLP137 DENSITY ALT 1100FT=
METAR CYPQ 190000Z AUTO VRB02KT 9SM SCT120 20/18 A2992 RMK SLP136 DENSITY ALT 1400FT=
METAR CYPQ 182300Z AUTO 17004KT 9SM BKN120 21/18 A2992 RMK SLP135 DENSITY ALT 1500FT=

TAF AMD CYPQ 182105Z 1821/1902 06010KT P6SM SCT060 BKN080 TEMPO
1821/1823 2SM TSRA BR BKN020 OVC060CB
FM182300 32012KT P6SM BKN060 TEMPO 1823/1901 P6SM -SHRA PROB30
1823/1901 2SM TSRA BR BKN015 OVC030CB
FM190100 VRB03KT P6SM FEW070
RMK FCST BASED ON AUTO OBS. NXT FCST BY 191000Z=
Your time UTC time
Weather data provided by Environment Canada and NAV CANADA